createdAt,value
2023-02-12T00:01:12.724Z,5.50
2023-02-12T00:03:40.964Z,5.50
2023-02-12T00:06:09.291Z,5.50
2023-02-12T00:08:37.539Z,5.50
2023-02-12T00:11:15.596Z,5.40
2023-02-12T00:13:43.036Z,5.50
2023-02-12T00:16:15.240Z,5.40
2023-02-12T00:18:43.223Z,5.50
2023-02-12T00:21:10.882Z,5.60
2023-02-12T00:23:39.169Z,5.50
2023-02-12T00:26:09.000Z,5.50
2023-02-12T00:28:36.457Z,5.50
2023-02-12T00:31:31.272Z,5.50
2023-02-12T00:33:59.754Z,5.50
2023-02-12T00:36:30.329Z,5.40
2023-02-12T00:38:58.257Z,5.40
2023-02-12T00:41:26.640Z,5.40
2023-02-12T00:43:53.542Z,5.50
2023-02-12T00:46:21.617Z,5.40
2023-02-12T00:48:48.693Z,5.40
2023-02-12T00:51:15.804Z,5.40
2023-02-12T00:53:42.717Z,5.40
2023-02-12T00:56:09.692Z,5.40
2023-02-12T00:58:36.534Z,5.40
2023-02-12T01:01:04.110Z,5.40
2023-02-12T01:03:31.069Z,5.40
2023-02-12T01:05:58.232Z,5.40
2023-02-12T01:08:25.583Z,5.40
2023-02-12T01:10:58.968Z,5.40
2023-02-12T01:13:27.129Z,5.40
2023-02-12T01:16:20.221Z,5.40
2023-02-12T01:18:48.297Z,5.40
2023-02-12T01:21:22.572Z,5.40
2023-02-12T01:23:50.005Z,5.40
2023-02-12T01:26:20.558Z,5.30
2023-02-12T01:28:55.169Z,5.30
2023-02-12T01:31:25.608Z,5.30
2023-02-12T01:33:56.924Z,5.30
2023-02-12T01:36:25.408Z,5.40
2023-02-12T01:38:52.429Z,5.30
2023-02-12T01:41:28.471Z,5.30
2023-02-12T01:44:28.268Z,5.30
2023-02-12T01:47:06.356Z,5.30
2023-02-12T01:49:42.556Z,5.30
2023-02-12T01:52:28.996Z,5.30
2023-02-12T01:55:01.062Z,5.30
2023-02-12T01:57:32.374Z,5.40
2023-02-12T02:00:03.129Z,5.40
2023-02-12T02:02:32.185Z,5.30
2023-02-12T02:05:04.147Z,5.30
2023-02-12T02:07:31.324Z,5.30
2023-02-12T02:09:58.944Z,5.30
2023-02-12T02:12:45.623Z,5.30
2023-02-12T02:15:12.880Z,5.20
2023-02-12T02:18:18.528Z,5.20
2023-02-12T02:21:35.728Z,5.20
2023-02-12T02:24:52.766Z,5.20
2023-02-12T02:28:10.387Z,5.30
2023-02-12T02:31:00.605Z,5.20
2023-02-12T02:33:43.852Z,5.30
2023-02-12T02:36:59.665Z,5.30
2023-02-12T02:39:57.820Z,5.30
2023-02-12T02:42:37.344Z,5.30
2023-02-12T02:45:26.388Z,5.30
2023-02-12T02:47:59.057Z,5.30
2023-02-12T02:50:30.460Z,5.30
2023-02-12T02:53:06.213Z,5.30
2023-02-12T02:55:42.618Z,5.30
2023-02-12T02:58:23.181Z,5.30
2023-02-12T03:01:29.566Z,5.30
2023-02-12T03:04:08.759Z,5.40
2023-02-12T03:06:47.875Z,5.30
2023-02-12T03:10:04.156Z,5.30
2023-02-12T03:12:47.621Z,5.30
2023-02-12T03:15:30.464Z,5.20
2023-02-12T03:18:01.327Z,5.20
2023-02-12T03:20:39.432Z,5.40
2023-02-12T03:23:17.019Z,5.30
2023-02-12T03:25:59.363Z,5.30
2023-02-12T03:28:35.138Z,5.30
2023-02-12T03:31:26.336Z,5.30
2023-02-12T03:34:15.837Z,5.40
2023-02-12T03:36:53.563Z,5.40
2023-02-12T03:39:55.217Z,5.40
2023-02-12T03:42:36.257Z,5.30
2023-02-12T03:45:52.331Z,5.30
2023-02-12T03:48:43.039Z,5.30
2023-02-12T03:51:23.799Z,5.30
2023-02-12T03:53:50.760Z,5.30
2023-02-12T03:56:50.311Z,5.30
2023-02-12T03:59:19.751Z,5.30
2023-02-12T04:01:48.664Z,5.40
2023-02-12T04:04:16.852Z,5.40
2023-02-12T04:06:47.057Z,5.40
2023-02-12T04:09:15.338Z,5.40
2023-02-12T04:11:47.822Z,5.40
2023-02-12T04:14:26.875Z,5.50
2023-02-12T04:17:15.027Z,5.40
2023-02-12T04:20:09.504Z,5.40
2023-02-12T04:23:04.123Z,5.40
2023-02-12T04:25:42.695Z,5.50
2023-02-12T04:28:30.933Z,5.50
2023-02-12T04:31:06.057Z,5.50
2023-02-12T04:33:47.253Z,5.50
2023-02-12T04:36:24.072Z,5.40
2023-02-12T04:39:00.424Z,5.40
2023-02-12T04:41:27.833Z,5.40
2023-02-12T04:43:54.839Z,5.40
2023-02-12T04:46:21.599Z,5.40
2023-02-12T04:48:58.754Z,5.40
2023-02-12T04:51:25.573Z,5.40
2023-02-12T04:53:52.473Z,5.40
2023-02-12T04:56:19.318Z,5.40
2023-02-12T04:58:46.162Z,5.40
2023-02-12T05:01:13.663Z,5.40
2023-02-12T05:03:40.545Z,5.40
2023-02-12T05:06:09.365Z,5.40
2023-02-12T05:08:36.302Z,5.40
2023-02-12T05:11:08.631Z,5.40
2023-02-12T05:13:36.394Z,5.40
2023-02-12T05:16:08.179Z,5.40
2023-02-12T05:18:35.809Z,5.40
2023-02-12T05:21:05.407Z,5.30
2023-02-12T05:23:36.203Z,5.40
2023-02-12T05:26:07.312Z,5.30
2023-02-12T05:28:34.669Z,5.40
2023-02-12T05:31:05.002Z,5.40
2023-02-12T05:33:32.825Z,5.30
2023-02-12T05:36:20.703Z,5.30
2023-02-12T05:38:47.963Z,5.30
2023-02-12T05:41:20.315Z,5.30
2023-02-12T05:43:49.712Z,5.30
2023-02-12T05:46:19.681Z,5.40
2023-02-12T05:48:47.910Z,5.50
2023-02-12T05:51:19.976Z,5.40
2023-02-12T05:53:47.065Z,5.40
2023-02-12T05:56:26.840Z,5.40
2023-02-12T05:59:07.766Z,5.50
2023-02-12T06:01:42.102Z,5.40
2023-02-12T06:04:16.092Z,5.40
2023-02-12T06:06:43.361Z,5.40
2023-02-12T06:09:12.278Z,5.40
2023-02-12T06:11:39.745Z,5.40
2023-02-12T06:14:10.939Z,5.30
2023-02-12T06:16:37.868Z,5.40
2023-02-12T06:19:06.456Z,5.30
2023-02-12T06:21:33.918Z,5.30
2023-02-12T06:24:01.330Z,5.30
2023-02-12T06:26:28.485Z,5.20
2023-02-12T06:28:55.474Z,5.20
2023-02-12T06:31:34.975Z,5.30
2023-02-12T06:34:05.959Z,5.20
2023-02-12T06:36:32.951Z,5.20
2023-02-12T06:39:02.801Z,5.20
2023-02-12T06:41:30.255Z,5.20
2023-02-12T06:43:57.109Z,5.20
2023-02-12T06:46:24.537Z,5.20
2023-02-12T06:49:00.193Z,5.20
2023-02-12T06:51:29.239Z,5.30
2023-02-12T06:53:57.047Z,5.30
2023-02-12T06:56:26.540Z,5.30
2023-02-12T06:58:59.490Z,5.30
2023-02-12T07:01:29.357Z,5.30
2023-02-12T07:04:03.537Z,5.30
2023-02-12T07:06:33.297Z,5.40
2023-02-12T07:09:01.624Z,5.40
2023-02-12T07:11:34.400Z,5.40
2023-02-12T07:14:03.197Z,5.50
2023-02-12T07:16:30.027Z,5.40
2023-02-12T07:18:56.900Z,5.50
2023-02-12T07:21:23.768Z,5.50
2023-02-12T07:23:52.959Z,5.50
2023-02-12T07:26:21.997Z,5.60
2023-02-12T07:28:50.596Z,5.60
2023-02-12T07:31:22.362Z,5.70
2023-02-12T07:33:52.940Z,5.70
2023-02-12T07:36:20.773Z,5.70
2023-02-12T07:38:48.179Z,5.70
2023-02-12T07:41:22.139Z,5.80
2023-02-12T07:43:54.889Z,5.80
2023-02-12T07:46:29.758Z,5.90
2023-02-12T07:48:59.807Z,5.90
2023-02-12T07:51:27.693Z,6.00
2023-02-12T07:53:55.074Z,6.10
2023-02-12T07:56:32.684Z,6.20
2023-02-12T07:59:04.757Z,6.30
2023-02-12T08:01:36.989Z,6.30
2023-02-12T08:04:11.679Z,6.30
2023-02-12T08:06:45.729Z,6.40
2023-02-12T08:09:18.180Z,6.40
2023-02-12T08:11:46.065Z,6.30
2023-02-12T08:14:16.804Z,6.30
2023-02-12T08:16:46.055Z,6.40
2023-02-12T08:19:20.255Z,6.40
2023-02-12T08:21:54.043Z,6.50
2023-02-12T08:24:23.917Z,6.50
2023-02-12T08:26:51.007Z,6.50
2023-02-12T08:29:25.217Z,6.60
2023-02-12T08:31:58.207Z,6.60
2023-02-12T08:34:31.851Z,6.60
2023-02-12T08:36:59.608Z,6.70
2023-02-12T08:39:29.457Z,6.70
2023-02-12T08:41:58.855Z,6.80
2023-02-12T08:44:26.317Z,6.90
2023-02-12T08:46:55.629Z,7.00
2023-02-12T08:49:27.477Z,7.10
2023-02-12T08:51:57.295Z,7.20
2023-02-12T08:54:28.032Z,7.40
2023-02-12T08:57:00.892Z,7.40
2023-02-12T08:59:28.535Z,7.40
2023-02-12T09:01:55.584Z,7.50
2023-02-12T09:04:28.251Z,7.50
2023-02-12T09:06:55.749Z,7.50
2023-02-12T09:09:22.862Z,7.50
2023-02-12T09:11:50.595Z,7.50
2023-02-12T09:14:23.740Z,7.40
2023-02-12T09:16:53.119Z,7.50
2023-02-12T09:19:20.256Z,7.40
2023-02-12T09:21:56.267Z,7.40
2023-02-12T09:24:25.614Z,7.40
2023-02-12T09:26:52.686Z,7.40
2023-02-12T09:29:19.519Z,7.60
2023-02-12T09:31:46.520Z,7.40
2023-02-12T09:34:13.460Z,7.60
2023-02-12T09:36:40.350Z,7.60
2023-02-12T09:39:07.162Z,7.60
2023-02-12T09:42:01.153Z,7.70
2023-02-12T09:44:42.856Z,7.90
2023-02-12T09:47:47.219Z,7.90
2023-02-12T09:50:51.098Z,7.90
2023-02-12T09:53:24.810Z,7.90
2023-02-12T09:55:51.806Z,7.90
2023-02-12T09:58:41.448Z,7.80
2023-02-12T10:01:16.157Z,7.90
2023-02-12T10:03:44.633Z,7.90
2023-02-12T10:06:29.625Z,7.90
2023-02-12T10:09:29.682Z,7.90
2023-02-12T10:12:24.755Z,8.00
2023-02-12T10:15:21.224Z,8.10
2023-02-12T10:18:22.966Z,7.90
2023-02-12T10:21:13.836Z,7.90
2023-02-12T10:23:47.174Z,7.90
2023-02-12T10:26:49.248Z,7.90
2023-02-12T10:29:45.882Z,7.90
2023-02-12T10:32:27.731Z,7.90
2023-02-12T10:34:57.865Z,8.00
2023-02-12T10:37:48.677Z,8.00
2023-02-12T10:40:32.802Z,8.00
2023-02-12T10:43:01.670Z,7.90
2023-02-12T10:45:39.937Z,8.00
2023-02-12T10:48:24.429Z,8.00
2023-02-12T10:51:41.549Z,8.20
2023-02-12T10:54:49.189Z,8.30
2023-02-12T10:57:30.177Z,8.40
2023-02-12T11:00:29.586Z,8.50
2023-02-12T11:03:21.634Z,8.60
2023-02-12T11:05:49.610Z,8.60
2023-02-12T11:08:46.258Z,8.70
2023-02-12T11:11:21.797Z,8.70
2023-02-12T11:14:21.043Z,8.80
2023-02-12T11:16:57.343Z,8.80
2023-02-12T11:19:29.786Z,8.80
2023-02-12T11:22:19.242Z,8.80
2023-02-12T11:24:59.681Z,8.80
2023-02-12T11:27:30.464Z,8.90
2023-02-12T11:30:21.544Z,8.90
2023-02-12T11:32:49.578Z,9.00
2023-02-12T11:35:28.405Z,9.00
2023-02-12T11:38:00.884Z,9.00
2023-02-12T11:40:33.788Z,8.90
2023-02-12T11:43:09.585Z,8.90
2023-02-12T11:45:50.545Z,8.80
2023-02-12T11:48:27.790Z,8.80
2023-02-12T11:50:59.430Z,8.80
2023-02-12T11:53:33.903Z,8.70
2023-02-12T11:56:12.567Z,8.80
2023-02-12T11:58:40.380Z,8.70
2023-02-12T12:01:34.274Z,8.70
2023-02-12T12:04:12.767Z,8.60
2023-02-12T12:07:05.446Z,8.60
2023-02-12T12:09:49.260Z,8.50
2023-02-12T12:12:45.617Z,8.40
2023-02-12T12:15:36.975Z,8.40
2023-02-12T12:18:39.166Z,8.30
2023-02-12T12:21:30.683Z,8.30
2023-02-12T12:24:20.492Z,8.30
2023-02-12T12:27:03.193Z,8.30
2023-02-12T12:30:00.934Z,8.30
2023-02-12T12:32:31.663Z,8.30
2023-02-12T12:34:58.481Z,8.30
2023-02-12T12:37:36.951Z,8.30
2023-02-12T12:40:34.924Z,8.30
2023-02-12T12:43:14.034Z,8.40
2023-02-12T12:46:42.365Z,8.50
2023-02-12T12:49:32.361Z,8.50
2023-02-12T12:52:17.242Z,8.50
2023-02-12T12:55:15.713Z,8.50
2023-02-12T12:57:54.758Z,8.50
2023-02-12T13:00:50.407Z,8.50
2023-02-12T13:04:05.525Z,8.50
2023-02-12T13:06:50.507Z,8.60
2023-02-12T13:09:48.630Z,8.60
2023-02-12T13:13:06.397Z,8.50
2023-02-12T13:15:54.965Z,8.50
2023-02-12T13:19:26.407Z,8.60
2023-02-12T13:22:10.906Z,8.60
2023-02-12T13:24:52.095Z,8.70
2023-02-12T13:27:28.409Z,8.70
2023-02-12T13:30:15.728Z,8.70
2023-02-12T13:32:50.701Z,8.70
2023-02-12T13:35:24.854Z,8.70
2023-02-12T13:37:56.179Z,8.60
2023-02-12T13:40:29.286Z,8.60
2023-02-12T13:43:20.204Z,8.60
2023-02-12T13:46:03.146Z,8.60
2023-02-12T13:49:00.572Z,8.50
2023-02-12T13:51:48.047Z,8.50
2023-02-12T13:54:52.035Z,8.50
2023-02-12T13:57:20.749Z,8.50
2023-02-12T13:59:58.179Z,8.40
2023-02-12T14:02:38.641Z,8.40
2023-02-12T14:05:25.455Z,8.40
2023-02-12T14:07:59.719Z,8.40
2023-02-12T14:10:40.937Z,8.40
2023-02-12T14:13:13.246Z,8.40
2023-02-12T14:15:45.436Z,8.40
2023-02-12T14:18:29.799Z,8.40
2023-02-12T14:21:11.706Z,8.30
2023-02-12T14:23:50.721Z,8.40
2023-02-12T14:26:24.066Z,8.30
2023-02-12T14:29:06.408Z,8.20
2023-02-12T14:31:38.602Z,8.20
2023-02-12T14:34:05.425Z,8.20
2023-02-12T14:36:32.282Z,8.20
2023-02-12T14:39:05.827Z,8.20
2023-02-12T14:41:38.803Z,8.20
2023-02-12T14:44:17.596Z,8.10
2023-02-12T14:46:48.829Z,8.10
2023-02-12T14:49:32.826Z,8.10
2023-02-12T14:52:16.036Z,8.10
2023-02-12T14:54:52.764Z,8.00
2023-02-12T14:57:28.901Z,8.00
2023-02-12T15:00:18.217Z,8.00
2023-02-12T15:03:15.283Z,8.00
2023-02-12T15:06:13.410Z,7.90
2023-02-12T15:09:02.844Z,8.00
2023-02-12T15:11:50.124Z,8.00
2023-02-12T15:14:27.911Z,7.90
2023-02-12T15:17:24.871Z,7.90
2023-02-12T15:20:08.091Z,7.90
2023-02-12T15:22:41.377Z,7.90
2023-02-12T15:25:31.850Z,8.10
2023-02-12T15:28:11.779Z,7.90
2023-02-12T15:30:43.019Z,7.90
2023-02-12T15:33:24.553Z,7.90
2023-02-12T15:35:53.108Z,7.90
2023-02-12T15:38:41.641Z,7.90
2023-02-12T15:41:23.205Z,7.90
2023-02-12T15:43:50.127Z,7.80
2023-02-12T15:46:18.622Z,7.80
2023-02-12T15:48:45.590Z,7.80
2023-02-12T15:51:38.287Z,7.80
2023-02-12T15:54:07.755Z,7.70
2023-02-12T15:56:36.332Z,7.70
2023-02-12T15:59:04.326Z,7.70
2023-02-12T16:01:35.195Z,7.70
2023-02-12T16:04:08.483Z,7.70
2023-02-12T16:06:36.866Z,7.60
2023-02-12T16:09:15.292Z,7.60
2023-02-12T16:11:46.885Z,7.60
2023-02-12T16:14:43.438Z,7.60
2023-02-12T16:17:29.169Z,7.60
2023-02-12T16:20:06.876Z,7.60
2023-02-12T16:22:41.253Z,7.50
2023-02-12T16:25:24.356Z,7.60
2023-02-12T16:28:04.247Z,7.60
2023-02-12T16:30:33.559Z,7.60
2023-02-12T16:33:02.244Z,7.60
2023-02-12T16:35:35.516Z,7.60
2023-02-12T16:38:30.356Z,7.60
2023-02-12T16:41:19.828Z,7.50
2023-02-12T16:43:50.955Z,7.50
2023-02-12T16:46:20.632Z,7.50
2023-02-12T16:48:54.155Z,7.50
2023-02-12T16:51:36.177Z,7.40
2023-02-12T16:54:24.006Z,7.40
2023-02-12T16:56:50.923Z,7.40
2023-02-12T16:59:17.857Z,7.40
2023-02-12T17:02:05.257Z,7.40
2023-02-12T17:04:32.106Z,7.40
2023-02-12T17:06:59.025Z,7.30
2023-02-12T17:09:26.070Z,7.30
2023-02-12T17:11:52.856Z,7.40
2023-02-12T17:14:21.265Z,7.30
2023-02-12T17:16:49.046Z,7.30
2023-02-12T17:19:16.336Z,7.40
2023-02-12T17:21:49.310Z,7.40
2023-02-12T17:24:23.273Z,7.40
2023-02-12T17:26:51.077Z,7.40
2023-02-12T17:29:19.911Z,7.40
2023-02-12T17:31:51.646Z,7.40
2023-02-12T17:34:18.498Z,7.40
2023-02-12T17:36:45.498Z,7.30
2023-02-12T17:39:15.129Z,7.30
2023-02-12T17:41:44.202Z,7.30
2023-02-12T17:44:13.774Z,7.30
2023-02-12T17:46:41.004Z,7.30
2023-02-12T17:49:07.784Z,7.30
2023-02-12T17:51:34.634Z,7.30
2023-02-12T17:54:01.519Z,7.30
2023-02-12T17:56:28.451Z,7.20
2023-02-12T17:58:55.407Z,7.20
2023-02-12T18:01:24.334Z,7.20
2023-02-12T18:03:54.583Z,7.20
2023-02-12T18:06:31.035Z,7.20
2023-02-12T18:09:01.540Z,7.20
2023-02-12T18:11:29.410Z,7.20
2023-02-12T18:13:58.170Z,7.20
2023-02-12T18:16:29.375Z,7.20
2023-02-12T18:18:57.209Z,7.20
2023-02-12T18:21:24.175Z,7.20
2023-02-12T18:23:53.423Z,7.20
2023-02-12T18:26:21.244Z,7.10
2023-02-12T18:28:48.704Z,7.10
2023-02-12T18:31:16.218Z,7.20
2023-02-12T18:33:43.210Z,7.20
2023-02-12T18:36:14.907Z,7.20
2023-02-12T18:38:43.811Z,7.10
2023-02-12T18:41:18.063Z,7.10
2023-02-12T18:43:45.783Z,7.10
2023-02-12T18:46:20.301Z,7.00
2023-02-12T18:48:48.356Z,7.00
2023-02-12T18:51:25.659Z,7.00
2023-02-12T18:53:56.297Z,7.00
2023-02-12T18:56:23.513Z,7.00
2023-02-12T18:58:59.170Z,7.00
2023-02-12T19:01:28.541Z,7.00
2023-02-12T19:04:00.272Z,7.00
2023-02-12T19:06:29.792Z,7.10
2023-02-12T19:09:03.215Z,7.10
2023-02-12T19:11:31.158Z,7.00
2023-02-12T19:13:58.298Z,7.10
2023-02-12T19:16:26.236Z,7.10
2023-02-12T19:18:59.260Z,7.00
2023-02-12T19:21:26.536Z,7.00
2023-02-12T19:23:59.860Z,7.00
2023-02-12T19:26:29.019Z,7.10
2023-02-12T19:28:57.857Z,7.00
2023-02-12T19:31:32.593Z,7.00
2023-02-12T19:34:05.736Z,7.00
2023-02-12T19:36:36.134Z,7.00
2023-02-12T19:39:05.982Z,7.00
2023-02-12T19:41:40.642Z,7.00
2023-02-12T19:44:13.503Z,6.90
2023-02-12T19:46:41.648Z,6.90
2023-02-12T19:49:16.141Z,6.90
2023-02-12T19:51:44.298Z,6.90
2023-02-12T19:54:13.334Z,6.90
2023-02-12T19:56:41.400Z,6.90
2023-02-12T19:59:08.913Z,6.90
2023-02-12T20:01:35.826Z,6.90
2023-02-12T20:04:03.664Z,6.90
2023-02-12T20:06:37.975Z,6.90
2023-02-12T20:09:07.713Z,7.00
2023-02-12T20:11:39.689Z,7.00
2023-02-12T20:14:10.915Z,7.00
2023-02-12T20:16:41.580Z,6.90
2023-02-12T20:19:16.010Z,7.00
2023-02-12T20:21:44.139Z,7.00
2023-02-12T20:24:11.002Z,7.00
2023-02-12T20:26:38.739Z,7.00
2023-02-12T20:29:05.822Z,6.90
2023-02-12T20:31:36.351Z,7.00
2023-02-12T20:34:15.056Z,6.90
2023-02-12T20:36:46.080Z,7.00
2023-02-12T20:39:16.652Z,7.00
2023-02-12T20:41:43.675Z,7.00
2023-02-12T20:44:15.914Z,7.00
2023-02-12T20:46:46.654Z,7.00
2023-02-12T20:49:15.705Z,6.90
2023-02-12T20:51:44.160Z,6.90
2023-02-12T20:54:11.940Z,6.90
2023-02-12T20:56:39.203Z,6.90
2023-02-12T20:59:07.954Z,7.00
2023-02-12T21:01:39.157Z,7.00
2023-02-12T21:04:13.658Z,6.90
2023-02-12T21:06:42.020Z,6.90
2023-02-12T21:09:12.217Z,6.90
2023-02-12T21:11:42.097Z,6.90
2023-02-12T21:14:21.991Z,6.80
2023-02-12T21:16:50.260Z,6.90
2023-02-12T21:19:18.138Z,6.80
2023-02-12T21:21:46.216Z,6.80
2023-02-12T21:24:21.636Z,6.80
2023-02-12T21:26:50.109Z,6.80
2023-02-12T21:29:17.342Z,6.70
2023-02-12T21:31:48.844Z,6.70
2023-02-12T21:34:20.929Z,6.70
2023-02-12T21:36:49.487Z,6.70
2023-02-12T21:39:26.010Z,6.70
2023-02-12T21:41:57.634Z,6.70
2023-02-12T21:44:26.456Z,6.70
2023-02-12T21:46:53.912Z,6.70
2023-02-12T21:49:28.190Z,6.60
2023-02-12T21:52:06.463Z,6.60
2023-02-12T21:54:33.834Z,6.70
2023-02-12T21:57:00.970Z,6.70
2023-02-12T21:59:30.796Z,6.60
2023-02-12T22:01:59.075Z,6.60
2023-02-12T22:04:26.857Z,6.50
2023-02-12T22:06:54.223Z,6.60
2023-02-12T22:09:23.379Z,6.50
2023-02-12T22:11:52.330Z,6.50
2023-02-12T22:14:21.383Z,6.60
2023-02-12T22:16:48.884Z,6.60
2023-02-12T22:19:15.857Z,6.50
2023-02-12T22:21:44.316Z,6.50
2023-02-12T22:24:15.116Z,6.50
2023-02-12T22:26:42.281Z,6.50
2023-02-12T22:29:13.167Z,6.50
2023-02-12T22:31:42.430Z,6.50
2023-02-12T22:34:17.607Z,6.40
2023-02-12T22:36:45.292Z,6.30
2023-02-12T22:39:14.061Z,6.30
2023-02-12T22:41:42.283Z,6.30
2023-02-12T22:44:12.147Z,6.30
2023-02-12T22:46:39.053Z,6.20
2023-02-12T22:49:05.841Z,6.20
2023-02-12T22:51:34.530Z,6.20
2023-02-12T22:54:01.607Z,6.20
2023-02-12T22:56:28.871Z,6.20
2023-02-12T22:58:59.099Z,6.20
2023-02-12T23:01:27.647Z,6.20
2023-02-12T23:03:55.600Z,6.10
2023-02-12T23:06:26.998Z,6.10
2023-02-12T23:08:59.586Z,6.00
2023-02-12T23:11:28.754Z,5.90
2023-02-12T23:13:56.200Z,6.00
2023-02-12T23:16:24.345Z,5.90
2023-02-12T23:18:59.216Z,5.90
2023-02-12T23:21:29.418Z,5.80
2023-02-12T23:23:59.015Z,5.80
2023-02-12T23:26:26.172Z,5.70
2023-02-12T23:28:53.089Z,5.70
2023-02-12T23:31:20.381Z,5.70
2023-02-12T23:33:47.805Z,5.70
2023-02-12T23:36:14.969Z,5.70
2023-02-12T23:38:41.908Z,5.70
2023-02-12T23:41:09.087Z,5.60
2023-02-12T23:43:35.887Z,5.70
2023-02-12T23:46:03.993Z,5.70
2023-02-12T23:48:30.928Z,5.70
2023-02-12T23:50:58.116Z,5.70
2023-02-12T23:53:25.167Z,5.70
2023-02-12T23:55:52.212Z,5.70
2023-02-12T23:58:19.742Z,5.70
